Have a Safe July 4th! 

Flight Track Log - Related Links

Times and Time Zones

All times are in EDT time to prevent confusion due to time zone crossing. See the DAL110 flight status page for this flight to view local times or setup timezone preferences in your user account.

Time Position Orientation Groundspeed Altitude Reporting Facility
EDT Latitude Longitude Course Direction KTS MPH feet Rate Location/Type
Tue 08:50:57 AM 33.6350 -84.4560 269° West 170 196 2,100  Level FlightAware ADS-B
Tue 08:51:22 AM 33.6350 -84.4800 270° West 195 224 2,800 1,500 Climbing FlightAware ADS-B
Tue 08:51:37 AM 33.6350 -84.4920 270° West 206 237 3,100 720 Climbing FlightAware ADS-B
Tue 08:52:12 AM 33.6350 -84.5350 270° West 217 250 3,400 2,571 Climbing FlightAware ADS-B
Tue 08:52:47 AM 33.6350 -84.5950 270° West 273 314 6,100 2,700 Climbing FlightAware ADS-B
Tue 08:53:12 AM 33.6340 -84.6300 268° West 273 314 6,100 3,600 Level FlightAware ADS-B
Tue 08:53:27 AM 33.6340 -84.6560 270° West 275 316 8,500 3,600 Climbing FlightAware ADS-B
Tue 08:53:57 AM 33.6340 -84.6980 270° West 275 316 8,800 1,286 Climbing FlightAware ADS-B
Tue 08:54:37 AM 33.6430 -84.7660 279° West 312 359 10,000 988 Climbing FlightAware ADS-B
Tue 08:55:22 AM 33.6650 -84.8440 289° West 347 399 10,200 1,680 Climbing FlightAware ADS-B
Tue 08:55:52 AM 33.6820 -84.9050 289° West 360 414 12,100 1,520 Climbing FlightAware ADS-B
Tue 08:56:37 AM 33.7020 -84.9800 288° West 360 414 12,100  Level FlightAware ADS-B
Tue 08:57:27 AM 33.7240 -85.0610 288° West 360 414 12,100 2,880 Level FlightAware ADS-B
Tue 08:58:07 AM 33.7500 -85.1610 287° West 16,500 4,800 Climbing FlightAware ADS-B
Tue 08:58:42 AM 33.7660 -85.2250 287° West 373 429 18,100 3,150 Climbing FlightAware ADS-B
Tue 08:59:27 AM 33.7840 -85.3250 282° West 380 437 20,700 1,733 Climbing FlightAware ADS-B
Tue 09:00:12 AM 33.7970 -85.4060 281° West 380 437 20,700  Level FlightAware ADS-B
Tue 09:00:52 AM 33.8080 -85.4770 281° West 380 437 20,700  Level FlightAware ADS-B
Tue 09:01:32 AM 33.8200 -85.5470 282° West 380 437 20,700  Level FlightAware ADS-B
Tue 09:02:22 AM 33.8340 -85.6360 281° West 380 437 20,700  Level FlightAware ADS-B
Tue 09:03:02 AM 33.8450 -85.7060 281° West 380 437 20,700 11,263 Level FlightAware ADS-B
Tue 09:03:19 AM 33.8958 -85.8292 296° West 417 480 31,400 15,191 Climbing FlightAware ADS-B
Tue 09:03:49 AM 33.9167 -85.8949 291° West 418 481 32,600 1,594 Climbing FlightAware ADS-B
Tue 09:04:23 AM 33.9405 -85.9695 291° West 432 497 33,100 1,120 Climbing FlightAware ADS-B
Tue 09:05:04 AM 33.9698 -86.0625 291° West 433 498 34,000 1,541 Climbing FlightAware ADS-B
Tue 09:05:37 AM 33.9923 -86.1369 290° West 432 497 35,000 1,565 Climbing FlightAware ADS-B
Tue 09:06:13 AM 34.0151 -86.2186 289° West 436 502 35,800 1,527 Climbing FlightAware ADS-B
Tue 09:07:27 AM 34.0600 -86.3780 289° West 441 507 37,800 1,109 Climbing FlightAware ADS-B
Tue 09:08:12 AM 34.0890 -86.4800 289° West 439 505 38,000 150 Climbing FlightAware ADS-B
Tue 09:08:47 AM 34.0730 -86.4250 109° East 440 506 38,000  Level FlightAware ADS-B
Tue 09:09:00 AM 34.1245 -86.6067 289° West 438 504 38,000  Level FlightAware ADS-B
Tue 09:09:32 AM 34.1420 -86.6690 289° West 440 506 38,000  Level FlightAware ADS-B
Tue 09:09:53 AM 34.1590 -86.7297 289° West 438 504 38,000  Level FlightAware ADS-B
Tue 09:10:37 AM 34.1867 -86.8291 289° West 435 501 38,000  Level FlightAware ADS-B
Tue 09:11:44 AM 34.2247 -86.9758 289° West 431 496 38,000  Level Memphis Center
Tue 09:12:44 AM 34.2614 -87.1003 290° West 431 496 38,000  Level Memphis Center
Tue 09:13:44 AM 34.3050 -87.2544 289° West 444 511 38,000  Level Memphis Center
Tue 09:14:44 AM 34.3439 -87.3939 289° West 444 511 38,000  Level Memphis Center
Tue 09:15:44 AM 34.3825 -87.5333 289° West 439 505 38,000  Level Memphis Center
Tue 09:16:44 AM 34.4169 -87.6733 287° West 431 496 38,000  Level Memphis Center
Tue 09:17:44 AM 34.4533 -87.8156 287° West 438 504 38,000  Level Memphis Center
Tue 09:18:44 AM 34.4914 -87.9406 290° West 438 504 38,000  Level Memphis Center
Tue 09:19:44 AM 34.5275 -88.0833 287° West 438 504 38,000  Level Memphis Center
Tue 09:20:44 AM 34.5700 -88.2461 288° West 447 514 38,000  Level Memphis Center
Tue 09:21:44 AM 34.6078 -88.3864 288° West 452 520 38,000  Level Memphis Center
Tue 09:22:44 AM 34.6389 -88.5069 287° West 440 506 38,000  Level Memphis Center
Tue 09:23:44 AM 34.6764 -88.6500 288° West 430 495 38,000  Level Memphis Center
Tue 09:24:44 AM 34.7181 -88.8008 289° West 436 502 38,000  Level Memphis Center
Tue 09:25:44 AM 34.7531 -88.9442 287° West 436 502 38,000  Level Memphis Center
Tue 09:26:44 AM 34.7881 -89.0828 287° West 436 502 38,000  Level Memphis Center
Tue 09:27:44 AM 34.8247 -89.2264 287° West 441 507 38,000  Level Memphis Center
Tue 09:28:44 AM 34.8614 -89.3650 288° West 441 507 38,000  Level Memphis Center
Tue 09:29:44 AM 34.8981 -89.5089 287° West 441 507 38,000  Level Memphis Center
Tue 09:30:44 AM 34.9364 -89.6528 288° West 441 507 38,000  Level Memphis Center
Tue 09:31:44 AM 34.9581 -89.8022 280° West 441 507 38,000  Level Memphis Center
Tue 09:32:44 AM 34.9775 -89.9567 279° West 462 532 38,000  Level Memphis Center
Tue 09:33:44 AM 34.9883 -90.1061 275° West 457 526 38,000  Level Memphis Center
Tue 09:34:44 AM 35.0011 -90.2558 276° West 457 526 38,000  Level Memphis Center
Tue 09:35:44 AM 35.0114 -90.4053 275° West 444 511 38,000  Level Memphis Center
Tue 09:36:44 AM 35.0239 -90.5522 276° West 444 511 38,000  Level Memphis Center
Tue 09:37:44 AM 35.0339 -90.6994 275° West 444 511 38,000  Level Memphis Center
Tue 09:38:44 AM 35.0461 -90.8492 276° West 444 511 38,000  Level Memphis Center
Tue 09:39:44 AM 35.0558 -90.9989 275° West 444 511 38,000  Level Memphis Center
Tue 09:40:44 AM 35.0694 -91.1486 276° West 446 513 38,000  Level Memphis Center
Tue 09:41:44 AM 35.0792 -91.2808 275° West 446 513 38,000  Level Memphis Center
Tue 09:42:44 AM 35.0883 -91.4281 274° West 441 507 38,000  Level Memphis Center
Tue 09:43:44 AM 35.0975 -91.5778 274° West 441 507 38,000  Level Memphis Center
Tue 09:44:44 AM 35.1064 -91.7253 274° West 441 507 38,000  Level Memphis Center
Tue 09:45:44 AM 35.1150 -91.8775 274° West 446 513 38,000  Level Memphis Center
Tue 09:46:44 AM 35.1256 -92.0250 275° West 446 513 38,000  Level Memphis Center
Tue 09:47:44 AM 35.1381 -92.1753 276° West 446 513 38,000  Level Memphis Center
Tue 09:48:44 AM 35.1442 -92.3278 273° West 446 513 38,000  Level Memphis Center
Tue 09:49:44 AM 35.1542 -92.4803 275° West 446 513 38,000  Level Memphis Center
Tue 09:50:44 AM 35.1639 -92.6328 275° West 446 513 38,000  Level Memphis Center
Tue 09:51:44 AM 35.1756 -92.7933 275° West 461 531 38,000  Level Memphis Center
Tue 09:52:44 AM 35.1831 -92.9383 274° West 455 524 38,000  Level Memphis Center
Tue 09:58:22 AM 35.2280 -93.7970 274° West 445 512 38,000  Level FlightAware ADS-B
Tue 09:59:02 AM 35.2330 -93.8990 273° West 446 513 38,000  Level FlightAware ADS-B
Tue 09:59:57 AM 35.2400 -94.0320 274° West 447 514 38,000  Level FlightAware ADS-B
Tue 10:00:37 AM 35.2430 -94.1180 272° West 447 514 38,000  Level FlightAware ADS-B
Tue 10:01:17 AM 35.2470 -94.2040 273° West 447 514 38,000  Level FlightAware ADS-B
Tue 10:01:57 AM 35.2510 -94.2900 273° West 447 514 38,000  Level FlightAware ADS-B
Tue 10:02:47 AM 35.2550 -94.3970 273° West 447 514 38,000  Level FlightAware ADS-B
Tue 10:03:42 AM 35.2660 -94.6000 274° West 448 516 38,000  Level FlightAware ADS-B
Tue 10:04:17 AM 35.2700 -94.6930 273° West 447 514 38,000  Level FlightAware ADS-B
Tue 10:05:02 AM 35.2730 -94.7940 272° West 447 514 38,000  Level FlightAware ADS-B
Tue 10:05:52 AM 35.2790 -94.9290 273° West 448 516 38,000  Level FlightAware ADS-B
Tue 10:06:42 AM 35.2840 -95.0560 273° West 448 516 38,000  Level FlightAware ADS-B
Tue 10:07:22 AM 35.2870 -95.1420 272° West 448 516 38,000  Level FlightAware ADS-B
Tue 10:08:02 AM 35.2890 -95.2290 272° West 448 516 38,000  Level FlightAware ADS-B
Tue 10:08:52 AM 35.2920 -95.3360 272° West 448 516 38,000  Level FlightAware ADS-B
Tue 10:09:32 AM 35.2940 -95.4230 272° West 448 516 38,000  Level FlightAware ADS-B
Tue 10:10:12 AM 35.2970 -95.5090 272° West 448 516 38,000  Level FlightAware ADS-B
Tue 10:10:52 AM 35.2990 -95.5950 272° West 448 516 38,000  Level FlightAware ADS-B
Tue 10:11:42 AM 35.3120 -95.8180 274° West 444 511 38,000  Level FlightAware ADS-B
Tue 10:12:32 AM 35.3160 -95.9400 272° West 440 506 38,000  Level FlightAware ADS-B
Tue 10:13:17 AM 35.3200 -96.0540 272° West 439 505 38,000  Level FlightAware ADS-B
Tue 10:13:57 AM 35.3230 -96.1510 272° West 439 505 38,000  Level FlightAware ADS-B
Tue 10:14:42 AM 35.3260 -96.2650 272° West 439 505 38,000  Level FlightAware ADS-B
Tue 10:15:27 AM 35.3290 -96.3680 272° West 440 506 38,000  Level FlightAware ADS-B
Tue 10:16:07 AM 35.3320 -96.4730 272° West 440 506 38,000  Level FlightAware ADS-B
Tue 10:16:47 AM 35.3350 -96.5740 272° West 438 504 38,000  Level FlightAware ADS-B
Tue 10:17:32 AM 35.3380 -96.6810 272° West 437 503 38,000  Level FlightAware ADS-B
Tue 10:18:12 AM 35.3410 -96.7780 272° West 437 503 38,000  Level FlightAware ADS-B
Tue 10:18:52 AM 35.3430 -96.8840 271° West 438 504 38,000  Level FlightAware ADS-B
Tue 10:19:37 AM 35.3460 -96.9900 272° West 441 507 38,000  Level FlightAware ADS-B
Tue 10:20:17 AM 35.3470 -97.0850 271° West 441 507 38,000  Level FlightAware ADS-B
Tue 10:20:57 AM 35.3500 -97.1920 272° West 434 499 38,000  Level FlightAware ADS-B
Tue 10:21:42 AM 35.3520 -97.2930 271° West 433 498 38,000  Level FlightAware ADS-B
Tue 10:22:22 AM 35.3550 -97.4010 272° West 433 498 38,000  Level FlightAware ADS-B
Tue 10:23:07 AM 35.3570 -97.5130 271° West 433 498 38,000  Level FlightAware ADS-B
Tue 10:23:47 AM 35.3580 -97.5980 271° West 432 497 38,000  Level FlightAware ADS-B
Tue 10:24:27 AM 35.3590 -97.6960 271° West 430 495 38,000  Level FlightAware ADS-B
Tue 10:25:12 AM 35.3610 -97.8160 271° West 429 494 38,000  Level FlightAware ADS-B
Tue 10:25:57 AM 35.3620 -97.9190 271° West 433 498 38,000  Level FlightAware ADS-B
Tue 10:26:37 AM 35.3630 -98.0240 271° West 431 496 38,000  Level FlightAware ADS-B
Tue 10:27:12 AM 35.3630 -98.0980 270° West 430 495 38,000  Level FlightAware ADS-B
Tue 10:28:02 AM 35.3630 -98.2010 270° West 430 495 38,000  Level FlightAware ADS-B
Tue 10:28:42 AM 35.3630 -98.2840 270° West 430 495 38,000  Level FlightAware ADS-B
Tue 10:29:22 AM 35.3630 -98.3670 270° West 430 495 38,000  Level FlightAware ADS-B
Tue 10:30:02 AM 35.3630 -98.4500 270° West 430 495 38,000  Level FlightAware ADS-B
Tue 10:30:42 AM 35.3630 -98.5330 270° West 430 495 38,000  Level FlightAware ADS-B
Tue 10:31:32 AM 35.3630 -98.6370 270° West 430 495 38,000  Level FlightAware ADS-B
Tue 10:32:12 AM 35.3630 -98.7200 270° West 430 495 38,000  Level FlightAware ADS-B
Tue 10:32:52 AM 35.3630 -98.8030 270° West 430 495 38,000  Level FlightAware ADS-B
Tue 10:33:32 AM 35.3630 -98.8860 270° West 430 495 38,000  Level FlightAware ADS-B
Tue 10:34:12 AM 35.3630 -98.9690 270° West 430 495 38,000  Level FlightAware ADS-B
Tue 10:35:02 AM 35.3630 -99.0720 270° West 430 495 38,000  Level FlightAware ADS-B
Tue 10:35:42 AM 35.3630 -99.1550 270° West 430 495 38,000  Level FlightAware ADS-B
Tue 10:36:22 AM 35.3630 -99.2380 270° West 430 495 38,000  Level FlightAware ADS-B
Tue 10:37:03 AM 35.3767 -99.4783 270° West 405 466 38,000  Level Fort Worth Center
Tue 10:37:28 AM 35.3700 -99.5247 260° West 404 465 38,000  Level Albuquerque Center
Tue 10:38:30 AM 35.3689 -99.6625 269° West 404 465 38,000  Level Albuquerque Center
Tue 10:39:31 AM 35.3678 -99.8006 269° West 405 466 38,000  Level Albuquerque Center
Tue 10:40:33 AM 35.3683 -99.9372 270° West 405 466 38,000  Level Albuquerque Center
Tue 10:41:35 AM 35.3672 -100.1022 270° West 404 465 38,000  Level Albuquerque Center
Tue 10:42:37 AM 35.3658 -100.2403 269° West 406 467 38,000  Level Albuquerque Center
Tue 10:43:39 AM 35.3647 -100.3789 269° West 408 470 38,000  Level Albuquerque Center
Tue 10:44:40 AM 35.3622 -100.5175 269° West 409 471 38,000  Level Albuquerque Center
Tue 10:45:42 AM 35.3619 -100.6569 270° West 410 472 38,000  Level Albuquerque Center
Tue 10:46:44 AM 35.3606 -100.7967 269° West 412 474 38,000  Level Albuquerque Center
Tue 10:47:46 AM 35.3594 -100.9378 269° West 414 476 38,000  Level Albuquerque Center
Tue 10:48:48 AM 35.3581 -101.1061 269° West 413 475 38,000  Level Albuquerque Center
Tue 10:49:50 AM 35.3550 -101.2464 269° West 414 476 38,000  Level Albuquerque Center
Tue 10:50:51 AM 35.3531 -101.3806 269° West 416 479 38,000  Level Albuquerque Center
Tue 10:51:53 AM 35.3506 -101.5242 269° West 417 480 38,000  Level Albuquerque Center
Tue 10:52:55 AM 35.3489 -101.6933 269° West 423 487 38,000  Level Albuquerque Center
Tue 10:53:57 AM 35.3433 -101.8367 267° West 418 481 38,000  Level Albuquerque Center
Tue 10:54:59 AM 35.3392 -101.9747 268° West 417 480 38,000  Level Albuquerque Center
Tue 10:56:01 AM 35.3358 -102.1150 268° West 417 480 38,000  Level Albuquerque Center
Tue 10:57:03 AM 35.3328 -102.2572 269° West 419 482 38,000  Level Albuquerque Center
Tue 10:58:05 AM 35.3286 -102.3994 268° West 419 482 38,000  Level Albuquerque Center
Tue 10:59:06 AM 35.3239 -102.5708 268° West 421 484 38,000  Level Albuquerque Center
Tue 11:00:08 AM 35.3219 -102.6975 269° West 419 482 38,000  Level Albuquerque Center
Tue 11:01:10 AM 35.3175 -102.8653 268° West 419 482 38,000  Level Albuquerque Center
Tue 11:02:12 AM 35.3125 -103.0092 268° West 421 484 38,000  Level Albuquerque Center
Tue 11:03:14 AM 35.3081 -103.1536 268° West 421 484 38,000  Level Albuquerque Center
Tue 11:04:16 AM 35.3039 -103.2981 268° West 422 486 38,000  Level Albuquerque Center
Tue 11:05:19 AM 35.2989 -103.4436 268° West 424 488 38,000  Level Albuquerque Center
Tue 11:06:20 AM 35.2936 -103.5900 268° West 426 490 38,000  Level Albuquerque Center
Tue 11:07:22 AM 35.2886 -103.7356 268° West 426 490 38,000  Level Albuquerque Center
Tue 11:08:24 AM 35.2817 -103.9056 267° West 426 490 38,000  Level Albuquerque Center
Tue 11:09:26 AM 35.2772 -104.0336 268° West 425 489 38,000  Level Albuquerque Center
Tue 11:10:28 AM 35.2719 -104.1767 267° West 423 487 38,000  Level Albuquerque Center
Tue 11:11:30 AM 35.2633 -104.3503 267° West 427 491 38,000  Level Albuquerque Center
Tue 11:12:32 AM 35.2575 -104.4947 267° West 426 490 38,000  Level Albuquerque Center
Tue 11:13:34 AM 35.2503 -104.6483 267° West 428 493 38,000  Level Albuquerque Center
Tue 11:14:36 AM 35.2433 -104.7956 267° West 429 494 38,000  Level Albuquerque Center
Tue 11:20:37 AM 35.2000 -105.6840 267° West 437 503 38,000  Level FlightAware ADS-B
Tue 11:21:12 AM 35.1960 -105.7620 266° West 438 504 38,000  Level FlightAware ADS-B
Tue 11:22:02 AM 35.1890 -105.8910 266° West 443 510 38,000  Level FlightAware ADS-B
Tue 11:22:42 AM 35.1830 -105.9920 266° West 444 511 38,000  Level FlightAware ADS-B
Tue 11:23:27 AM 35.1770 -106.1080 266° West 443 510 38,000  Level FlightAware ADS-B
Tue 11:24:07 AM 35.1710 -106.2060 266° West 443 510 38,000  Level FlightAware ADS-B
Tue 11:24:52 AM 35.1650 -106.3180 266° West 446 513 38,000  Level FlightAware ADS-B
Tue 11:25:32 AM 35.1590 -106.4190 266° West 440 506 38,000  Level FlightAware ADS-B
Tue 11:26:12 AM 35.1530 -106.5160 266° West 437 503 38,000  Level FlightAware ADS-B
Tue 11:26:57 AM 35.1460 -106.6300 266° West 437 503 38,000  Level FlightAware ADS-B
Tue 11:27:37 AM 35.1400 -106.7260 266° West 437 503 38,000  Level FlightAware ADS-B
Tue 11:28:22 AM 35.1340 -106.8320 266° West 436 502 38,000  Level FlightAware ADS-B
Tue 11:29:02 AM 35.1270 -106.9330 265° West 434 499 38,000  Level FlightAware ADS-B
Tue 11:29:42 AM 35.1210 -107.0310 266° West 433 498 38,000  Level FlightAware ADS-B
Tue 11:30:27 AM 35.1140 -107.1420 266° West 432 497 38,000  Level FlightAware ADS-B
Tue 11:31:07 AM 35.1080 -107.2380 266° West 430 495 38,000  Level FlightAware ADS-B
Tue 11:31:52 AM 35.1010 -107.3440 265° West 426 490 38,000  Level FlightAware ADS-B
Tue 11:32:32 AM 35.0940 -107.4400 265° West 424 488 38,000  Level FlightAware ADS-B
Tue 11:33:12 AM 35.0880 -107.5350 266° West 422 486 38,000  Level FlightAware ADS-B
Tue 11:33:57 AM 35.0800 -107.6450 265° West 421 484 38,000  Level FlightAware ADS-B
Tue 11:34:37 AM 35.0740 -107.7340 265° West 421 484 38,000  Level FlightAware ADS-B
Tue 11:35:22 AM 35.0670 -107.8310 265° West 421 484 38,000  Level FlightAware ADS-B
Tue 11:36:02 AM 35.0590 -107.9380 265° West 422 486 38,000  Level FlightAware ADS-B
Tue 11:36:42 AM 35.0530 -108.0300 265° West 422 486 38,000  Level FlightAware ADS-B
Tue 11:37:27 AM 35.0450 -108.1420 265° West 421 484 38,000  Level FlightAware ADS-B
Tue 11:38:07 AM 35.0380 -108.2330 265° West 422 486 38,000  Level FlightAware ADS-B
Tue 11:38:52 AM 35.0300 -108.3390 265° West 423 487 38,000  Level FlightAware ADS-B
Tue 11:39:47 AM 35.0200 -108.4590 264° West 422 486 38,000  Level FlightAware ADS-B
Tue 11:40:27 AM 35.0130 -108.5400 264° West 422 486 38,000  Level FlightAware ADS-B
Tue 11:41:07 AM 35.0060 -108.6210 264° West 422 486 38,000  Level FlightAware ADS-B
Tue 11:41:52 AM 34.9970 -108.7660 266° West 423 487 38,000  Level FlightAware ADS-B
Tue 11:42:37 AM 34.9880 -108.8740 264° West 422 486 38,000  Level FlightAware ADS-B
Tue 11:43:17 AM 34.9810 -108.9700 265° West 422 486 38,000  Level FlightAware ADS-B
Tue 11:43:57 AM 34.9730 -109.0640 264° West 422 486 38,000  Level FlightAware ADS-B
Tue 11:44:42 AM 34.9640 -109.1710 264° West 421 484 38,000  Level FlightAware ADS-B
Tue 11:45:22 AM 34.9580 -109.2650 266° West 422 486 38,000  Level FlightAware ADS-B
Tue 11:46:02 AM 34.9520 -109.3600 266° West 421 484 38,000  Level FlightAware ADS-B
Tue 11:46:47 AM 34.9450 -109.4620 265° West 419 482 38,000  Level FlightAware ADS-B
Tue 11:47:27 AM 34.9390 -109.5570 266° West 419 482 38,000  Level FlightAware ADS-B
Tue 11:48:22 AM 34.9300 -109.6800 265° West 419 482 38,000  Level FlightAware ADS-B
Tue 11:49:07 AM 34.9220 -109.7940 265° West 418 481 38,000  Level FlightAware ADS-B
Tue 11:49:47 AM 34.9160 -109.8840 265° West 418 481 38,000  Level FlightAware ADS-B
Tue 11:50:32 AM 34.9080 -109.9920 265° West 417 480 38,000  Level FlightAware ADS-B
Tue 11:51:12 AM 34.9010 -110.0880 265° West 416 479 38,000  Level FlightAware ADS-B
Tue 11:51:52 AM 34.8950 -110.1770 265° West 416 479 38,000  Level FlightAware ADS-B
Tue 11:52:37 AM 34.8870 -110.2840 265° West 415 478 38,000  Level FlightAware ADS-B
Tue 11:53:17 AM 34.8800 -110.3750 265° West 411 473 38,000  Level FlightAware ADS-B
Tue 11:54:02 AM 34.8690 -110.4800 263° West 409 471 38,000  Level FlightAware ADS-B
Tue 11:54:42 AM 34.8570 -110.5700 261° West 408 470 38,000  Level FlightAware ADS-B
Tue 11:55:27 AM 34.8450 -110.6720 262° West 409 471 38,000  Level FlightAware ADS-B
Tue 11:56:07 AM 34.8340 -110.7620 262° West 409 471 38,000  Level FlightAware ADS-B
Tue 11:56:47 AM 34.8230 -110.8530 262° West 408 470 38,000  Level FlightAware ADS-B
Tue 11:57:32 AM 34.8100 -110.9540 261° West 408 470 38,000  Level FlightAware ADS-B
Tue 11:58:12 AM 34.7990 -111.0470 262° West 408 470 38,000  Level FlightAware ADS-B
Tue 11:58:57 AM 34.7860 -111.1480 261° West 409 471 38,000  Level FlightAware ADS-B
Tue 11:59:37 AM 34.7750 -111.2380 262° West 409 471 38,000  Level FlightAware ADS-B
Tue 12:00:17 PM 34.7630 -111.3290 261° West 409 471 38,000  Level FlightAware ADS-B
Tue 12:01:02 PM 34.7500 -111.4360 262° West 410 472 38,000  Level FlightAware ADS-B
Tue 12:01:42 PM 34.7380 -111.5250 261° West 409 471 38,000  Level FlightAware ADS-B
Tue 12:02:27 PM 34.7250 -111.6250 261° West 408 470 38,000  Level FlightAware ADS-B
Tue 12:03:07 PM 34.7130 -111.7150 261° West 407 468 38,000  Level FlightAware ADS-B
Tue 12:03:47 PM 34.7020 -111.8050 262° West 405 466 38,000  Level FlightAware ADS-B
Tue 12:04:32 PM 34.6880 -111.9070 261° West 405 466 38,000  Level FlightAware ADS-B
Tue 12:05:12 PM 34.6760 -111.9970 261° West 405 466 38,000  Level FlightAware ADS-B
Tue 12:05:52 PM 34.6640 -112.0870 261° West 405 466 38,000  Level FlightAware ADS-B
Tue 12:06:37 PM 34.6510 -112.1870 261° West 406 467 38,000  Level FlightAware ADS-B
Tue 12:07:17 PM 34.6390 -112.2750 261° West 406 467 38,000  Level FlightAware ADS-B
Tue 12:08:02 PM 34.6250 -112.3790 261° West 409 471 38,000  Level FlightAware ADS-B
Tue 12:08:42 PM 34.6120 -112.4690 260° West 406 467 38,000  Level FlightAware ADS-B
Tue 12:09:27 PM 34.5990 -112.5680 261° West 404 465 38,000  Level FlightAware ADS-B
Tue 12:10:07 PM 34.5870 -112.6570 261° West 406 467 38,000  Level FlightAware ADS-B
Tue 12:10:47 PM 34.5740 -112.7460 260° West 403 464 38,000  Level FlightAware ADS-B
Tue 12:11:32 PM 34.5600 -112.8490 261° West 403 464 38,000  Level FlightAware ADS-B
Tue 12:12:12 PM 34.5480 -112.9350 260° West 406 467 38,000  Level FlightAware ADS-B
Tue 12:12:57 PM 34.5330 -113.0380 260° West 405 466 38,000  Level FlightAware ADS-B
Tue 12:13:37 PM 34.5200 -113.1270 260° West 403 464 38,000  Level FlightAware ADS-B
Tue 12:14:17 PM 34.5080 -113.2150 261° West 402 463 38,000  Level FlightAware ADS-B
Tue 12:15:02 PM 34.4930 -113.3160 260° West 399 459 38,000  Level FlightAware ADS-B
Tue 12:15:42 PM 34.4800 -113.4040 260° West 395 455 38,000  Level FlightAware ADS-B
Tue 12:16:27 PM 34.4660 -113.5000 260° West 397 457 38,000  Level FlightAware ADS-B
Tue 12:17:07 PM 34.4530 -113.5880 260° West 398 458 38,000  Level FlightAware ADS-B
Tue 12:17:47 PM 34.4400 -113.6770 260° West 399 459 38,000  Level FlightAware ADS-B
Tue 12:18:32 PM 34.4260 -113.7760 260° West 395 455 38,000  Level FlightAware ADS-B
Tue 12:19:12 PM 34.4130 -113.8630 260° West 394 453 38,000  Level FlightAware ADS-B
Tue 12:19:52 PM 34.4000 -113.9490 260° West 394 453 38,000  Level FlightAware ADS-B
Tue 12:20:37 PM 34.3850 -114.0450 259° West 393 452 38,000  Level FlightAware ADS-B
Tue 12:21:17 PM 34.3720 -114.1320 260° West 396 456 38,000  Level FlightAware ADS-B
Tue 12:21:57 PM 34.3590 -114.2190 260° West 398 458 38,000  Level FlightAware ADS-B
Tue 12:22:42 PM 34.3440 -114.3180 260° West 398 458 38,000  Level FlightAware ADS-B
Tue 12:23:22 PM 34.3310 -114.4030 260° West 399 459 38,000  Level FlightAware ADS-B
Tue 12:24:07 PM 34.3170 -114.4990 260° West 401 461 38,000  Level FlightAware ADS-B
Tue 12:24:12 PM 34.3190 -114.4920 71° East 38,000  Level FlightAware ADS-B
Tue 12:24:32 PM 34.3110 -114.5600 262° West 404 465 38,000  Level FlightAware ADS-B
Tue 12:25:17 PM 34.2980 -114.6550 261° West 403 464 38,000  Level FlightAware ADS-B
Tue 12:25:57 PM 34.2890 -114.7310 262° West 403 464 38,000  Level FlightAware ADS-B
Tue 12:26:37 PM 34.2790 -114.8060 261° West 403 464 38,000  Level FlightAware ADS-B
Tue 12:27:17 PM 34.2690 -114.8820 261° West 403 464 38,000  Level FlightAware ADS-B
Tue 12:28:02 PM 34.2490 -115.0300 261° West 413 475 38,000  Level FlightAware ADS-B
Tue 12:28:47 PM 34.2350 -115.1340 261° West 409 471 38,000  Level FlightAware ADS-B
Tue 12:29:27 PM 34.2230 -115.2240 261° West 408 470 38,000  Level FlightAware ADS-B
Tue 12:30:12 PM 34.2110 -115.3160 261° West 409 471 38,000  Level FlightAware ADS-B
Tue 12:30:52 PM 34.1980 -115.4110 261° West 404 465 38,000  Level FlightAware ADS-B
Tue 12:31:32 PM 34.1860 -115.5020 261° West 403 464 38,000  Level FlightAware ADS-B
Tue 12:32:17 PM 34.1720 -115.6000 260° West 402 463 38,000  Level FlightAware ADS-B
Tue 12:32:57 PM 34.1600 -115.6870 261° West 402 463 38,000  Level FlightAware ADS-B
Tue 12:33:42 PM 34.1460 -115.7870 260° West 404 465 38,000  Level FlightAware ADS-B
Tue 12:34:22 PM 34.1340 -115.8710 260° West 406 467 38,000  Level FlightAware ADS-B
Tue 12:35:02 PM 34.1210 -115.9680 261° West 407 468 38,000 -847 Level FlightAware ADS-B
Tue 12:35:47 PM 34.1080 -116.0640 261° West 402 463 36,800 -2,188 Descending FlightAware ADS-B
Tue 12:36:27 PM 34.0940 -116.1570 260° West 400 460 34,900 -2,925 Descending FlightAware ADS-B
Tue 12:37:07 PM 34.0820 -116.2440 261° West 395 455 32,900 -2,753 Descending FlightAware ADS-B
Tue 12:37:52 PM 34.0680 -116.3390 260° West 373 429 31,000 -2,400 Descending FlightAware ADS-B
Tue 12:38:27 PM 34.0580 -116.4110 261° West 362 417 29,700 -2,188 Descending FlightAware ADS-B
Tue 12:39:17 PM 34.0430 -116.5110 260° West 352 405 27,900 -2,067 Descending FlightAware ADS-B
Tue 12:39:57 PM 34.0330 -116.5820 260° West 342 394 26,600 -2,188 Descending FlightAware ADS-B
Tue 12:40:42 PM 34.0210 -116.6660 260° West 336 387 24,800 -2,118 Descending FlightAware ADS-B
Tue 12:41:22 PM 34.0090 -116.7430 259° West 342 394 23,600 -1,575 Descending FlightAware ADS-B
Tue 12:42:02 PM 33.9980 -116.8160 260° West 339 390 22,700 -1,425 Descending FlightAware ADS-B
Tue 12:42:42 PM 33.9880 -116.8900 261° West 330 380 21,700 -1,976 Descending FlightAware ADS-B
Tue 12:43:27 PM 33.9750 -116.9720 259° West 327 376 19,900 -2,400 Descending FlightAware ADS-B
Tue 12:44:07 PM 33.9640 -117.0450 260° West 328 377 18,300 -2,188 Descending FlightAware ADS-B
Tue 12:44:52 PM 33.9530 -117.1250 261° West 344 396 16,800 -1,553 Descending FlightAware ADS-B
Tue 12:45:32 PM 33.9470 -117.2010 265° West 346 398 16,100 -1,050 Descending FlightAware ADS-B
Tue 12:46:12 PM 33.9400 -117.2780 264° West 348 400 15,400 -1,271 Descending FlightAware ADS-B
Tue 12:46:57 PM 33.9340 -117.3600 265° West 351 404 14,300 -1,765 Descending FlightAware ADS-B
Tue 12:47:37 PM 33.9520 -117.4310 287° West 347 399 12,900 -1,906 Descending FlightAware ADS-B
Tue 12:48:22 PM 33.9820 -117.5140 294° West 335 386 11,600 -1,553 Descending FlightAware ADS-B
Tue 12:49:02 PM 34.0060 -117.5810 293° West 320 368 10,700 -1,074 Descending FlightAware ADS-B
Tue 12:49:57 PM 34.0080 -117.6790 271° West 282 325 9,900 -918 Descending FlightAware ADS-B
Tue 12:50:27 PM 34.0030 -117.7240 262° West 271 312 9,400 -1,067 Descending FlightAware ADS-B
Tue 12:50:42 PM 34.0010 -117.7440 263° West 273 314 9,100 -1,350 Descending FlightAware ADS-B
Tue 12:51:07 PM 33.9970 -117.7850 263° West 283 326 8,500 -1,091 Descending FlightAware ADS-B
Tue 12:51:37 PM 33.9920 -117.8330 263° West 270 311 8,100 -533 Descending FlightAware ADS-B
Tue 12:51:52 PM 33.9900 -117.8520 263° West 259 298 8,100 -450 Level FlightAware ADS-B
Tue 12:52:17 PM 33.9870 -117.8870 264° West 238 274 7,800 -873 Descending FlightAware ADS-B
Tue 12:52:47 PM 33.9830 -117.9260 263° West 222 255 7,300 -1,091 Descending FlightAware ADS-B
Tue 12:53:12 PM 33.9800 -117.9540 263° West 202 232 6,800 -1,050 Descending FlightAware ADS-B
Tue 12:53:27 PM 33.9790 -117.9710 266° West 196 226 6,600 -933 Descending FlightAware ADS-B
Tue 12:53:57 PM 33.9750 -118.0040 262° West 197 227 6,100 -1,000 Descending FlightAware ADS-B
Tue 12:54:27 PM 33.9720 -118.0340 263° West 193 222 5,600 -1,000 Descending FlightAware ADS-B
Tue 12:54:57 PM 33.9690 -118.0670 264° West 188 216 5,100 -982 Descending FlightAware ADS-B
Tue 12:55:22 PM 33.9670 -118.0920 264° West 187 215 4,700 -982 Descending FlightAware ADS-B
Tue 12:55:52 PM 33.9640 -118.1240 264° West 186 214 4,200 -982 Descending FlightAware ADS-B
Tue 12:56:17 PM 33.9610 -118.1500 262° West 185 213 3,800 -873 Descending FlightAware ADS-B
Tue 12:56:47 PM 33.9580 -118.1810 263° West 184 212 3,400 -900 Descending FlightAware ADS-B
Tue 12:57:17 PM 33.9550 -118.2120 263° West 186 214 2,900 -1,091 Descending FlightAware ADS-B
Tue 12:57:42 PM 33.9520 -118.2370 262° West 189 217 2,400 -1,067 Descending FlightAware ADS-B
Tue 12:58:02 PM 33.9510 -118.2560 266° West 192 221 2,100 -545 Descending FlightAware ADS-B
Tue 12:58:37 PM 33.9470 -118.2900 262° West 191 220 1,900 -300 Descending FlightAware ADS-B
Tue 12:59:22 PM 33.9450 -118.3010 258° West 179 206 1,700 -267 Descending FlightAware ADS-B

Login

Don't have an account? Register now (free) for customized features, flight alerts, and more!